Time;durP1;ratioP1;P1;durP2;ratioP2;P2;SDS_P1;SDS_P2;PMS_P1;PMS_P2;Temp;Humidity;BMP_temperature;BMP_pressure;BME280_temperature;BME280_humidity;BME280_pressure;Samples;Min_cycle;Max_cycle;Signal;HPM_P1;HPM_P2
2023/02/10 00:01:39;;;;;;;24.58;9.63;;;;;;;2.31;100.00;103099.63;6204907;28;20061;-77
2023/02/10 00:04:42;;;;;;;28.13;11.02;;;;;;;2.30;100.00;103096.16;6228653;28;20053;-77
2023/02/10 00:07:43;;;;;;;26.50;11.05;;;;;;;2.33;100.00;103104.00;6228151;28;20045;-77
2023/02/10 00:10:44;;;;;;;37.90;12.15;;;;;;;2.35;100.00;103104.03;6228465;28;20057;-77
2023/02/10 00:13:47;;;;;;;35.17;12.20;;;;;;;2.37;100.00;103103.22;6228242;28;20050;-77
2023/02/10 00:16:51;;;;;;;26.75;10.95;;;;;;;2.37;100.00;103100.63;6228127;28;20089;-77
2023/02/10 00:19:54;;;;;;;44.47;12.02;;;;;;;2.38;100.00;103096.31;6228148;28;20184;-77
2023/02/10 00:22:55;;;;;;;27.42;11.23;;;;;;;2.43;100.00;103107.66;6227847;28;20451;-77
2023/02/10 00:25:56;;;;;;;28.83;10.82;;;;;;;2.45;100.00;103105.94;6227908;28;20344;-76
2023/02/10 00:28:58;;;;;;;29.77;11.88;;;;;;;2.47;100.00;103105.13;6227429;28;20050;-77
2023/02/10 00:31:59;;;;;;;32.03;10.20;;;;;;;2.46;100.00;103099.94;6226006;28;20340;-77
2023/02/10 00:35:02;;;;;;;26.52;11.88;;;;;;;2.45;100.00;103100.75;6227374;28;20049;-77
2023/02/10 00:38:03;;;;;;;49.42;11.95;;;;;;;2.42;100.00;103092.94;6203294;28;20057;-77
2023/02/10 00:41:05;;;;;;;32.10;11.88;;;;;;;2.42;100.00;103095.53;6214997;28;20053;-77
2023/02/10 00:44:06;;;;;;;34.58;12.73;;;;;;;2.38;100.00;103098.91;6210998;28;20046;-77
2023/02/10 00:47:07;;;;;;;27.30;11.05;;;;;;;2.43;100.00;103102.47;6203049;28;20057;-77
2023/02/10 00:50:10;;;;;;;38.22;12.23;;;;;;;2.44;100.00;103099.00;6202931;28;20060;-77
2023/02/10 00:53:11;;;;;;;29.00;10.55;;;;;;;2.45;100.00;103106.84;6203230;28;20047;-77
2023/02/10 00:56:13;;;;;;;36.40;11.63;;;;;;;2.47;100.00;103099.94;6203320;28;20050;-77
2023/02/10 00:59:15;;;;;;;26.13;11.10;;;;;;;2.49;100.00;103099.97;6221763;28;20076;-77
2023/02/10 01:02:17;;;;;;;27.73;11.35;;;;;;;2.46;100.00;103108.59;6225195;28;20073;-77
2023/02/10 01:05:19;;;;;;;43.47;12.43;;;;;;;2.43;100.00;103107.66;6227150;28;20046;-77
2023/02/10 01:08:21;;;;;;;35.58;11.13;;;;;;;2.46;100.00;103108.59;6226646;28;20042;-74
2023/02/10 01:11:23;;;;;;;33.05;10.63;;;;;;;2.47;100.00;103102.53;6227042;28;20420;-74
2023/02/10 01:14:25;;;;;;;33.67;11.90;;;;;;;2.51;100.00;103101.75;6227273;28;20042;-74
2023/02/10 01:17:26;;;;;;;32.40;13.15;;;;;;;2.52;100.00;103094.84;6226945;28;20050;-75
2023/02/10 01:20:29;;;;;;;34.45;13.27;;;;;;;2.53;100.00;103099.16;6226478;28;20349;-77
2023/02/10 01:23:30;;;;;;;27.27;12.85;;;;;;;2.46;100.00;103095.59;6226607;28;20424;-77
2023/02/10 01:26:32;;;;;;;27.13;11.30;;;;;;;2.50;100.00;103091.34;6226361;28;20042;-77
2023/02/10 01:29:33;;;;;;;31.05;11.75;;;;;;;2.45;100.00;103098.16;6226687;28;20082;-77
2023/02/10 01:32:35;;;;;;;39.67;12.30;;;;;;;2.50;100.00;103096.53;6225068;28;20061;-78
2023/02/10 01:35:39;;;;;;;26.95;11.40;;;;;;;2.50;100.00;103107.78;6226757;28;20052;-77
2023/02/10 01:38:41;;;;;;;32.05;12.05;;;;;;;2.57;100.00;103105.28;6226177;28;20092;-77
2023/02/10 01:41:43;;;;;;;34.20;11.18;;;;;;;2.56;100.00;103108.75;6226133;28;20137;-77
2023/02/10 01:45:13;;;;;;;25.80;11.15;;;;;;;2.56;100.00;103104.44;6226613;28;20057;-77
2023/02/10 01:48:15;;;;;;;26.27;11.43;;;;;;;2.59;100.00;103099.28;6226018;28;20060;-76
2023/02/10 01:51:23;;;;;;;31.33;11.75;;;;;;;2.63;100.00;103101.06;6226556;28;20104;-76
2023/02/10 01:54:28;;;;;;;26.58;11.77;;;;;;;2.66;100.00;103095.06;6226092;28;20060;-77
2023/02/10 01:57:30;;;;;;;36.25;10.48;;;;;;;2.64;100.00;103091.59;6226135;28;20053;-77
2023/02/10 02:00:31;;;;;;;23.70;11.45;;;;;;;2.64;100.00;103095.06;6226233;28;20054;-77
2023/02/10 02:03:33;;;;;;;32.22;10.82;;;;;;;2.59;100.00;103093.19;6224745;28;20053;-77
2023/02/10 02:06:36;;;;;;;34.70;12.80;;;;;;;2.61;100.00;103101.91;6226065;28;20373;-77
2023/02/10 02:09:38;;;;;;;29.67;11.63;;;;;;;2.66;100.00;103092.47;6227999;28;20057;-76
2023/02/10 02:12:45;;;;;;;28.75;11.68;;;;;;;2.64;100.00;103086.41;6231051;28;20045;-77
2023/02/10 02:15:52;;;;;;;27.83;10.00;;;;;;;2.60;100.00;103085.47;6231042;28;20054;-77
2023/02/10 02:18:58;;;;;;;27.90;11.40;;;;;;;2.59;100.00;103088.91;6230660;28;20060;-77
2023/02/10 02:22:42;;;;;;;25.90;11.40;;;;;;;2.60;100.00;103090.66;6230600;28;20458;-77
2023/02/10 02:26:02;;;;;;;31.77;12.15;;;;;;;2.59;100.00;103095.81;6215344;28;20053;-77
2023/02/10 02:29:25;;;;;;;26.67;11.95;;;;;;;2.60;100.00;103085.47;6230427;28;20330;-77
2023/02/10 02:32:31;;;;;;;24.80;10.45;;;;;;;2.59;100.00;103098.41;6230699;28;20057;-77
2023/02/10 02:35:39;;;;;;;27.15;11.82;;;;;;;2.60;100.00;103106.22;6228918;28;20046;-77
2023/02/10 02:38:42;;;;;;;26.00;11.48;;;;;;;2.66;100.00;103101.13;6230072;28;20429;-77
2023/02/10 02:41:43;;;;;;;28.20;11.73;;;;;;;2.60;100.00;103103.63;6230244;28;20076;-76
2023/02/10 02:44:48;;;;;;;37.80;13.00;;;;;;;2.57;100.00;103098.38;6230245;28;20045;-77
2023/02/10 02:48:10;;;;;;;35.50;12.73;;;;;;;2.59;100.00;103101.91;6230151;28;20049;-74
2023/02/10 02:51:19;;;;;;;39.67;12.48;;;;;;;2.61;100.00;103094.13;6230198;28;20053;-77
2023/02/10 02:54:25;;;;;;;24.70;11.43;;;;;;;2.59;100.00;103091.50;6230392;28;20045;-77
2023/02/10 02:57:37;;;;;;;24.67;12.18;;;;;;;2.61;100.00;103092.41;6229673;28;20550;-77
2023/02/10 03:00:42;;;;;;;33.40;10.55;;;;;;;2.60;100.00;103094.97;6230119;28;20348;-77
2023/02/10 03:03:45;;;;;;;29.83;10.25;;;;;;;2.56;100.00;103098.38;6219098;28;20433;-76
2023/02/10 03:06:46;;;;;;;28.52;11.48;;;;;;;2.57;100.00;103095.78;6205644;28;20050;-77
2023/02/10 03:09:48;;;;;;;29.73;12.65;;;;;;;2.58;100.00;103086.28;6205030;28;20062;-77
2023/02/10 03:12:50;;;;;;;33.42;12.23;;;;;;;2.61;100.00;103087.22;6205389;28;20061;-77
2023/02/10 03:15:51;;;;;;;31.15;11.93;;;;;;;2.60;100.00;103092.38;6205251;28;20047;-77
2023/02/10 03:18:54;;;;;;;30.67;11.65;;;;;;;2.53;100.00;103092.25;6205129;28;20050;-78
2023/02/10 03:21:55;;;;;;;22.17;10.02;;;;;;;2.52;100.00;103092.25;6204114;28;20057;-77
2023/02/10 03:24:56;;;;;;;29.33;10.80;;;;;;;2.51;100.00;103095.69;6205266;28;20054;-77
2023/02/10 03:27:58;;;;;;;26.92;10.18;;;;;;;2.49;100.00;103105.16;6204796;28;20054;-77
2023/02/10 03:31:02;;;;;;;31.20;12.13;;;;;;;2.48;100.00;103104.28;6204959;28;20054;-77
2023/02/10 03:34:05;;;;;;;33.17;10.27;;;;;;;2.46;100.00;103103.38;6224791;28;20056;-77
2023/02/10 03:37:06;;;;;;;31.42;11.77;;;;;;;2.45;100.00;103095.56;6204828;28;20451;-77
2023/02/10 03:40:09;;;;;;;32.33;11.25;;;;;;;2.43;100.00;103103.31;6209186;28;20049;-77
2023/02/10 03:43:10;;;;;;;29.00;10.98;;;;;;;2.45;100.00;103101.66;6222416;28;20049;-76
2023/02/10 03:46:12;;;;;;;23.80;10.20;;;;;;;2.43;100.00;103099.84;6229179;28;20050;-77
2023/02/10 03:49:15;;;;;;;38.17;12.43;;;;;;;2.39;100.00;103101.50;6228812;28;20041;-77
2023/02/10 03:52:16;;;;;;;25.02;10.80;;;;;;;2.33;100.00;103100.53;6228896;28;20046;-74
2023/02/10 03:55:19;;;;;;;31.00;11.35;;;;;;;2.31;100.00;103097.03;6229026;28;20057;-74
2023/02/10 03:58:20;;;;;;;25.60;11.02;;;;;;;2.26;100.00;103099.53;6228278;28;20046;-75
2023/02/10 04:01:22;;;;;;;26.15;11.98;;;;;;;2.21;100.00;103094.25;6218427;28;20054;-75
2023/02/10 04:04:24;;;;;;;26.67;11.52;;;;;;;2.18;100.00;103091.63;6204339;28;20433;-77
2023/02/10 04:07:26;;;;;;;33.88;11.80;;;;;;;2.18;100.00;103094.22;6204081;28;20046;-77
2023/02/10 04:10:27;;;;;;;24.63;11.85;;;;;;;2.14;100.00;103091.53;6227227;28;20046;-77
2023/02/10 04:13:29;;;;;;;29.38;11.52;;;;;;;2.11;100.00;103102.72;6234727;28;20068;-77
2023/02/10 04:16:31;;;;;;;30.23;11.65;;;;;;;2.13;100.00;103098.41;6252979;28;20053;-77
2023/02/10 04:19:34;;;;;;;32.47;13.25;;;;;;;2.09;100.00;103098.34;6252393;28;20085;-77
2023/02/10 04:22:35;;;;;;;33.63;12.65;;;;;;;2.06;100.00;103103.47;6252847;28;20053;-77
2023/02/10 04:25:37;;;;;;;39.90;12.10;;;;;;;2.05;100.00;103101.75;6238062;28;20049;-77
2023/02/10 04:28:38;;;;;;;28.70;11.52;;;;;;;1.97;100.00;103099.84;6226352;28;20046;-77
2023/02/10 04:31:39;;;;;;;36.65;12.05;;;;;;;2.02;100.00;103108.59;6227740;28;20050;-77
2023/02/10 04:34:42;;;;;;;21.85;10.40;;;;;;;1.97;100.00;103104.16;6227998;28;20460;-77
2023/02/10 04:37:43;;;;;;;23.00;10.18;;;;;;;1.93;100.00;103100.63;6227693;28;20046;-77
2023/02/10 04:40:45;;;;;;;37.97;11.18;;;;;;;1.89;100.00;103101.41;6227645;28;20054;-77
2023/02/10 04:43:46;;;;;;;23.55;10.70;;;;;;;1.95;100.00;103116.22;6227760;28;20049;-77
2023/02/10 04:46:49;;;;;;;35.75;12.35;;;;;;;1.86;100.00;103118.59;6227510;28;20074;-77
2023/02/10 04:49:52;;;;;;;29.35;12.23;;;;;;;1.89;100.00;103126.47;6227400;28;20046;-77
2023/02/10 04:52:53;;;;;;;27.33;9.75;;;;;;;1.82;100.00;103121.97;6234655;28;20042;-77
2023/02/10 04:55:55;;;;;;;26.77;11.10;;;;;;;1.76;100.00;103128.78;6239975;28;20443;-77
2023/02/10 04:58:57;;;;;;;34.47;12.65;;;;;;;1.70;100.00;103126.06;6227079;28;20432;-77
2023/02/10 05:01:59;;;;;;;34.15;11.82;;;;;;;1.71;100.00;103126.94;6227472;28;20049;-76
2023/02/10 05:05:01;;;;;;;28.50;10.57;;;;;;;1.63;100.00;103131.06;6227313;28;20368;-77
2023/02/10 05:08:02;;;;;;;24.50;11.73;;;;;;;1.64;100.00;103131.13;6226786;28;20059;-77
2023/02/10 05:11:04;;;;;;;22.08;10.38;;;;;;;1.63;100.00;103126.75;6227114;28;20050;-77
2023/02/10 05:14:06;;;;;;;25.95;11.73;;;;;;;1.60;100.00;103129.31;6227191;28;20053;-77
2023/02/10 05:17:07;;;;;;;25.13;11.35;;;;;;;1.56;100.00;103129.22;6220139;28;20125;-77
2023/02/10 05:20:11;;;;;;;31.67;13.38;;;;;;;1.58;100.00;103133.56;6225606;28;20087;-77
2023/02/10 05:23:13;;;;;;;30.10;11.73;;;;;;;1.59;100.00;103127.56;6226754;28;20050;-77
2023/02/10 05:26:14;;;;;;;32.95;11.98;;;;;;;1.65;100.00;103126.81;6226667;28;20050;-77
2023/02/10 05:29:16;;;;;;;28.27;11.95;;;;;;;1.62;100.00;103131.94;6226639;28;20057;-77
2023/02/10 05:32:17;;;;;;;30.35;11.27;;;;;;;1.61;100.00;103120.69;6226331;28;20062;-77
2023/02/10 05:35:20;;;;;;;24.58;10.80;;;;;;;1.57;100.00;103118.00;6208587;28;20054;-77
2023/02/10 05:38:21;;;;;;;31.60;11.10;;;;;;;1.57;100.00;103129.22;6201899;28;20046;-76
2023/02/10 05:41:22;;;;;;;25.67;11.10;;;;;;;1.51;100.00;103132.56;6202149;28;20053;-77
2023/02/10 05:44:25;;;;;;;27.17;12.00;;;;;;;1.45;100.00;103128.94;6202829;28;20046;-77
2023/02/10 05:47:27;;;;;;;33.92;11.05;;;;;;;1.39;100.00;103134.00;6201909;28;20049;-77
2023/02/10 05:50:30;;;;;;;34.88;12.60;;;;;;;1.34;100.00;103136.47;6202006;28;20050;-76
2023/02/10 05:53:31;;;;;;;28.98;11.82;;;;;;;1.35;100.00;103138.22;6201898;28;20137;-76
2023/02/10 05:56:33;;;;;;;29.92;11.30;;;;;;;1.36;100.00;103152.06;6201911;28;20349;-77
2023/02/10 05:59:34;;;;;;;26.95;12.02;;;;;;;1.37;100.00;103140.88;6201608;28;20057;-77
2023/02/10 06:02:35;;;;;;;36.80;13.02;;;;;;;1.34;100.00;103157.22;6201596;28;20349;-77
2023/02/10 06:05:39;;;;;;;31.67;11.38;;;;;;;1.37;100.00;103159.00;6201773;28;20047;-77
2023/02/10 06:08:40;;;;;;;33.10;13.43;;;;;;;1.32;100.00;103170.94;6202551;28;20042;-77
2023/02/10 06:11:41;;;;;;;22.52;11.45;;;;;;;1.41;100.00;103172.06;6201763;28;20083;-77
2023/02/10 06:14:43;;;;;;;26.15;11.75;;;;;;;1.33;100.00;103171.00;6201626;28;20054;-77
2023/02/10 06:17:44;;;;;;;36.40;13.63;;;;;;;1.35;100.00;103176.22;6201607;28;20050;-77
2023/02/10 06:20:47;;;;;;;43.50;12.93;;;;;;;1.39;100.00;103184.09;6201658;28;20054;-77
2023/02/10 06:23:49;;;;;;;37.33;12.10;;;;;;;1.32;100.00;103184.81;6201640;28;20073;-77
2023/02/10 06:26:50;;;;;;;38.75;12.80;;;;;;;1.31;100.00;103185.63;6201563;28;20042;-77
2023/02/10 06:29:52;;;;;;;27.80;11.55;;;;;;;1.34;100.00;103190.88;6201524;28;20061;-77
2023/02/10 06:32:53;;;;;;;35.08;12.85;;;;;;;1.33;100.00;103191.72;6201335;28;20463;-77
2023/02/10 06:35:56;;;;;;;42.55;13.95;;;;;;;1.40;100.00;103192.75;6203036;28;20051;-76
2023/02/10 06:38:57;;;;;;;23.90;11.70;;;;;;;1.35;100.00;103196.94;6201117;28;20053;-76
2023/02/10 06:41:59;;;;;;;34.47;14.65;;;;;;;1.30;100.00;103198.53;6201373;28;20069;-77
2023/02/10 06:45:01;;;;;;;29.63;13.45;;;;;;;1.27;100.00;103191.56;6201490;28;20192;-76
2023/02/10 06:48:02;;;;;;;37.47;12.73;;;;;;;1.35;100.00;103196.94;6201030;28;20073;-77
2023/02/10 06:51:05;;;;;;;39.28;13.70;;;;;;;1.24;100.00;103199.28;6201232;28;20057;-76
2023/02/10 06:54:06;;;;;;;29.60;13.15;;;;;;;1.26;100.00;103197.59;6201210;28;20388;-76
2023/02/10 06:57:08;;;;;;;26.80;12.07;;;;;;;1.32;100.00;103196.84;6205570;28;20050;-77
2023/02/10 07:00:12;;;;;;;26.33;12.32;;;;;;;1.31;100.00;103197.69;6206695;28;20050;-77
2023/02/10 07:03:15;;;;;;;37.92;14.23;;;;;;;1.31;100.00;103200.28;6205675;28;20062;-76
2023/02/10 07:06:18;;;;;;;38.13;14.30;;;;;;;1.17;100.00;103203.41;6205526;28;20330;-76
2023/02/10 07:09:19;;;;;;;31.10;12.68;;;;;;;1.17;100.00;103206.00;6205235;28;20097;-76
2023/02/10 07:12:21;;;;;;;31.20;13.18;;;;;;;1.13;100.00;103206.75;6214248;28;20054;-77
2023/02/10 07:15:23;;;;;;;35.40;12.75;;;;;;;1.15;100.00;103214.59;6241321;28;20049;-76
2023/02/10 07:18:24;;;;;;;27.42;12.02;;;;;;;1.10;100.00;103209.28;6239545;28;20046;-77
2023/02/10 07:21:27;;;;;;;32.70;12.70;;;;;;;1.11;100.00;103211.03;6240683;28;20082;-77
2023/02/10 07:24:28;;;;;;;26.52;11.35;;;;;;;1.18;100.00;103212.97;6239903;28;20348;-77
2023/02/10 07:27:29;;;;;;;28.92;11.73;;;;;;;1.19;100.00;103214.69;6238528;28;20045;-77
2023/02/10 07:30:31;;;;;;;23.27;11.23;;;;;;;1.19;100.00;103219.88;6240542;28;20069;-77
2023/02/10 07:33:32;;;;;;;29.38;12.23;;;;;;;1.20;100.00;103210.41;6239325;28;20056;-77
2023/02/10 07:36:35;;;;;;;31.55;11.82;;;;;;;1.18;100.00;103209.47;6240742;28;20053;-77
2023/02/10 07:39:36;;;;;;;27.48;11.13;;;;;;;1.22;100.00;103213.88;6238486;28;20446;-77
2023/02/10 07:42:38;;;;;;;28.33;11.10;;;;;;;1.22;100.00;103214.75;6238599;28;20136;-76
2023/02/10 07:45:39;;;;;;;20.77;10.32;;;;;;;1.22;100.00;103222.53;6230840;28;20042;-77
2023/02/10 07:48:40;;;;;;;25.30;11.75;;;;;;;1.25;100.00;103227.78;6230902;28;20046;-75
2023/02/10 07:51:43;;;;;;;33.22;11.43;;;;;;;1.24;100.00;103228.63;6228465;28;20057;-75
2023/02/10 07:54:44;;;;;;;35.47;12.65;;;;;;;1.30;100.00;103220.13;6229112;28;20050;-75
2023/02/10 07:57:45;;;;;;;27.25;10.30;;;;;;;1.28;100.00;103224.41;6228685;28;20046;-76
2023/02/10 08:00:47;;;;;;;29.77;11.45;;;;;;;1.30;100.00;103222.72;6228290;28;20050;-76
2023/02/10 08:03:49;;;;;;;27.42;11.40;;;;;;;1.31;100.00;103223.59;6223628;28;20050;-76
2023/02/10 08:06:52;;;;;;;28.15;12.55;;;;;;;1.36;100.00;103222.88;6227277;28;20045;-75
2023/02/10 08:09:53;;;;;;;33.90;13.20;;;;;;;1.49;100.00;103226.63;6227632;28;20050;-76
2023/02/10 08:12:54;;;;;;;35.40;12.52;;;;;;;1.42;100.00;103222.16;6228153;28;20395;-76
2023/02/10 08:15:55;;;;;;;28.00;11.43;;;;;;;1.41;100.00;103226.47;6228279;28;20053;-76
2023/02/10 08:18:57;;;;;;;32.00;13.48;;;;;;;1.47;100.00;103225.75;6227424;28;20060;-77
2023/02/10 08:22:00;;;;;;;31.08;11.98;;;;;;;1.57;100.00;103232.03;6227782;28;20057;-76
2023/02/10 08:25:01;;;;;;;30.88;12.48;;;;;;;1.58;100.00;103236.34;6227562;28;20057;-75
2023/02/10 08:28:03;;;;;;;25.00;11.27;;;;;;;1.58;100.00;103238.94;6227090;28;20057;-77
2023/02/10 08:31:06;;;;;;;31.23;13.48;;;;;;;1.58;100.00;103242.41;6227336;28;20054;-76
2023/02/10 08:34:15;;;;;;;32.17;11.35;;;;;;;1.66;100.00;103243.47;6219568;28;20053;-76
2023/02/10 08:37:19;;;;;;;34.30;14.10;;;;;;;1.70;100.00;103239.25;6221143;28;20050;-76
2023/02/10 08:40:20;;;;;;;41.03;12.75;;;;;;;1.72;100.00;103242.72;6226572;28;20049;-75
2023/02/10 08:43:21;;;;;;;28.77;12.52;;;;;;;1.74;100.00;103247.13;6220668;28;20053;-76
2023/02/10 08:46:23;;;;;;;31.17;13.13;;;;;;;1.89;100.00;103251.78;6227052;28;20551;-77
2023/02/10 08:49:24;;;;;;;34.47;11.25;;;;;;;1.92;100.00;103248.41;6227298;28;20056;-77
2023/02/10 08:52:27;;;;;;;35.10;11.88;;;;;;;1.90;100.00;103247.47;6227104;28;20188;-77
2023/02/10 08:55:29;;;;;;;42.00;13.82;;;;;;;1.96;100.00;103245.91;6226623;28;20054;-76
2023/02/10 08:58:30;;;;;;;30.83;12.13;;;;;;;2.02;100.00;103248.63;6226743;28;20042;-76
2023/02/10 09:01:32;;;;;;;31.17;12.57;;;;;;;2.11;100.00;103244.50;6226605;28;20038;-76
2023/02/10 09:04:33;;;;;;;31.15;13.20;;;;;;;2.13;100.00;103253.16;6227245;28;20049;-76
2023/02/10 09:07:36;;;;;;;48.58;13.10;;;;;;;2.12;100.00;103252.31;6225963;28;20341;-77
2023/02/10 09:10:40;;;;;;;27.13;12.57;;;;;;;2.18;100.00;103262.84;6225391;28;20100;-77
2023/02/10 09:13:41;;;;;;;35.88;13.82;;;;;;;2.20;100.00;103255.06;6226788;28;20440;-77
2023/02/10 09:16:43;;;;;;;33.25;12.20;;;;;;;2.27;100.00;103263.03;6226457;28;20042;-77
2023/02/10 09:19:44;;;;;;;36.13;12.80;;;;;;;2.36;100.00;103272.69;6225243;28;20046;-75
2023/02/10 09:22:47;;;;;;;27.92;12.40;;;;;;;2.41;100.00;103262.44;6215614;28;20108;-76
2023/02/10 09:25:53;;;;;;;26.40;11.93;;;;;;;2.42;100.00;103262.47;6226354;28;20054;-76
2023/02/10 09:28:54;;;;;;;38.15;12.48;;;;;;;2.50;100.00;103260.91;6225800;28;20357;-75
2023/02/10 09:31:57;;;;;;;32.40;13.13;;;;;;;2.56;100.00;103254.97;6226520;28;20060;-76
2023/02/10 09:34:58;;;;;;;31.67;12.68;;;;;;;2.64;100.00;103252.53;6225098;28;20054;-77
2023/02/10 09:38:01;;;;;;;32.67;12.93;;;;;;;2.70;100.00;103253.53;6225271;28;20050;-76
2023/02/10 09:41:13;;;;;;;32.75;12.88;;;;;;;2.86;100.00;103254.72;6225562;28;20050;-76
2023/02/10 09:44:19;;;;;;;31.38;13.18;;;;;;;2.82;100.00;103263.28;6224539;28;20352;-77
2023/02/10 09:47:33;;;;;;;36.70;13.85;;;;;;;2.87;100.00;103274.63;6226196;28;20065;-77
2023/02/10 09:50:46;;;;;;;35.22;13.65;;;;;;;2.89;100.00;103259.94;6225166;28;20057;-77
2023/02/10 09:53:49;;;;;;;29.55;13.32;;;;;;;2.97;100.00;103252.28;6226353;28;20056;-77
2023/02/10 09:56:51;;;;;;;34.22;11.73;;;;;;;3.01;100.00;103267.09;6225908;28;20395;-76
2023/02/10 09:59:56;;;;;;;29.30;12.65;;;;;;;3.06;100.00;103262.84;6220821;28;20053;-78
2023/02/10 10:02:59;;;;;;;28.70;11.38;;;;;;;3.16;100.00;103264.75;6201970;28;20046;-77
2023/02/10 10:06:09;;;;;;;41.05;13.45;;;;;;;3.24;100.00;103268.38;6201504;28;20329;-77
2023/02/10 10:09:24;;;;;;;29.23;12.18;;;;;;;3.24;100.00;103270.09;6223922;28;20046;-77
2023/02/10 10:12:26;;;;;;;29.83;12.40;;;;;;;3.29;100.00;103278.84;6225477;28;20057;-76
2023/02/10 10:15:36;;;;;;;32.15;13.25;;;;;;;3.35;100.00;103275.47;6226000;28;20050;-76
2023/02/10 10:18:48;;;;;;;34.20;13.60;;;;;;;3.39;100.00;103282.50;6233762;28;20054;-75
2023/02/10 10:21:59;;;;;;;28.17;12.15;;;;;;;3.37;100.00;103279.88;6225891;28;20053;-75
2023/02/10 10:25:30;;;;;;;38.63;12.60;;;;;;;3.40;100.00;103277.31;6230283;28;20058;-76
2023/02/10 10:28:45;;;;;;;30.35;11.35;;;;;;;3.53;100.00;103273.19;6226508;28;20056;-76
2023/02/10 10:31:50;;;;;;;35.25;12.50;;;;;;;3.54;100.00;103278.44;6239528;28;20046;-75
2023/02/10 10:34:53;;;;;;;31.02;12.00;;;;;;;3.62;100.00;103281.13;6238352;28;20049;-76
2023/02/10 10:37:54;;;;;;;27.13;11.00;;;;;;;3.59;100.00;103281.13;6230592;28;20042;-77
2023/02/10 10:41:02;;;;;;;32.85;12.27;;;;;;;3.62;100.00;103269.88;6230236;28;20061;-76
2023/02/10 10:44:03;;;;;;;28.15;13.57;;;;;;;3.65;100.00;103281.19;6230940;28;20057;-76
2023/02/10 10:47:12;;;;;;;34.95;12.82;;;;;;;3.67;100.00;103269.09;6230165;28;20057;-76
2023/02/10 10:50:16;;;;;;;38.40;12.57;;;;;;;3.72;100.00;103264.81;6230164;28;20053;-76
2023/02/10 10:53:23;;;;;;;27.80;11.68;;;;;;;3.83;100.00;103261.53;6210682;28;20058;-75
2023/02/10 10:56:32;;;;;;;34.67;11.88;;;;;;;3.92;100.00;103266.88;6242076;28;20057;-76
2023/02/10 10:59:40;;;;;;;34.03;11.48;;;;;;;3.99;100.00;103261.78;6240994;28;20069;-75
2023/02/10 11:02:52;;;;;;;30.27;12.33;;;;;;;4.09;100.00;103260.19;6237187;28;20440;-75
2023/02/10 11:06:03;;;;;;;29.60;11.23;;;;;;;4.09;100.00;103252.41;6234457;28;20052;-76
2023/02/10 11:09:08;;;;;;;33.55;11.10;;;;;;;4.10;100.00;103248.94;6236875;28;20049;-76
2023/02/10 11:12:20;;;;;;;18.90;9.40;;;;;;;4.14;100.00;103258.53;6229176;28;20128;-77
2023/02/10 11:15:33;;;;;;;30.73;12.52;;;;;;;4.19;100.00;103241.25;6229595;28;20054;-77
2023/02/10 11:18:34;;;;;;;35.78;11.20;;;;;;;4.27;100.00;103242.22;6226420;28;20049;-76
2023/02/10 11:21:37;;;;;;;39.15;12.57;;;;;;;4.37;100.00;103239.75;6228636;28;20121;-76
2023/02/10 11:24:50;;;;;;;29.67;11.73;;;;;;;4.42;100.00;103235.47;6228153;28;20045;-75
2023/02/10 11:27:53;;;;;;;44.65;13.20;;;;;;;4.59;100.00;103220.91;6227288;28;20053;-77
2023/02/10 11:30:57;;;;;;;29.02;11.73;;;;;;;4.71;100.00;103238.41;6228557;28;20364;-76
2023/02/10 11:34:02;;;;;;;41.20;12.18;;;;;;;4.78;100.00;103240.22;6229132;28;20061;-77
2023/02/10 11:37:12;;;;;;;37.45;12.18;;;;;;;4.82;100.00;103228.97;6228912;28;20050;-76
2023/02/10 11:40:20;;;;;;;32.70;11.80;;;;;;;4.90;100.00;103231.66;6221463;28;20137;-77
2023/02/10 11:43:29;;;;;;;47.75;16.67;;;;;;;5.09;100.00;103225.78;6227030;28;20116;-76
2023/02/10 11:46:31;;;;;;;34.95;11.50;;;;;;;5.06;100.00;103229.22;6228913;28;20046;-77
2023/02/10 11:49:36;;;;;;;30.40;11.10;;;;;;;5.09;100.00;103218.84;6228240;28;20057;-77
2023/02/10 11:52:38;;;;;;;32.65;11.77;;;;;;;5.15;100.00;103215.41;6228942;28;20145;-77
2023/02/10 11:55:50;;;;;;;34.53;12.55;;;;;;;5.38;100.00;103222.53;6228659;28;20042;-76
2023/02/10 11:59:03;;;;;;;34.30;13.68;;;;;;;5.49;100.00;103216.53;6228286;28;20161;-76
2023/02/10 12:02:15;;;;;;;31.92;11.25;;;;;;;5.51;100.00;103214.81;6228624;28;20081;-77
2023/02/10 12:05:29;;;;;;;29.65;12.52;;;;;;;5.53;100.00;103220.91;6228439;28;20056;-77
2023/02/10 12:08:36;;;;;;;38.22;14.02;;;;;;;5.69;100.00;103214.09;6209575;28;20053;-75
2023/02/10 12:11:47;;;;;;;39.33;13.10;;;;;;;5.89;100.00;103211.59;6221413;28;20138;-76
2023/02/10 12:15:02;;;;;;;42.45;13.80;;;;;;;6.05;100.00;103204.78;6227892;28;20046;-76
2023/02/10 12:18:18;;;;;;;31.13;11.50;;;;;;;6.16;100.00;103199.59;6227714;28;20053;-77
2023/02/10 12:21:39;;;;;;;31.58;11.90;;;;;;;6.07;100.00;103185.63;6223469;28;20061;-75
2023/02/10 12:24:59;;;;;;;32.97;13.00;;;;;;;6.14;100.00;103185.66;6227231;28;20061;-76
2023/02/10 12:28:05;;;;;;;37.88;13.77;;;;;;;6.05;100.00;103186.50;6226994;28;20049;-77
2023/02/10 12:31:24;;;;;;;44.05;14.15;;;;;;;6.00;100.00;103183.88;6227461;28;20053;-77
2023/02/10 12:34:39;;;;;;;36.20;14.40;;;;;;;5.81;100.00;103190.69;6222361;28;20352;-76
2023/02/10 12:37:51;;;;;;;35.42;13.55;;;;;;;5.79;100.00;103181.97;6227403;28;20041;-77
2023/02/10 12:41:07;;;;;;;37.83;13.30;;;;;;;5.79;100.00;103170.66;6213849;28;20132;-77
2023/02/10 12:44:21;;;;;;;42.08;15.02;;;;;;;5.86;100.00;103172.44;6220048;28;20053;-77
2023/02/10 12:47:34;;;;;;;45.30;15.13;;;;;;;5.91;100.00;103170.72;6227296;28;20058;-76
2023/02/10 12:50:48;;;;;;;42.42;13.40;;;;;;;5.89;100.00;103156.78;6227364;28;20451;-78
2023/02/10 12:53:56;;;;;;;36.33;13.60;;;;;;;5.94;100.00;103152.50;6227212;28;20079;-76
2023/02/10 12:57:01;;;;;;;44.45;14.02;;;;;;;5.87;100.00;103155.06;6227854;28;20057;-76
2023/02/10 13:00:06;;;;;;;44.08;14.02;;;;;;;5.79;100.00;103152.41;6225516;28;20057;-77
2023/02/10 13:03:15;;;;;;;37.35;14.43;;;;;;;5.69;100.00;103164.53;6219525;28;20117;-77
2023/02/10 13:06:28;;;;;;;36.00;12.20;;;;;;;5.60;100.00;103157.50;6227449;28;20042;-76
2023/02/10 13:09:40;;;;;;;31.63;12.02;;;;;;;5.64;100.00;103150.59;6226630;28;20046;-76
2023/02/10 13:12:45;;;;;;;34.75;12.23;;;;;;;5.69;100.00;103143.66;6226983;28;20356;-77
2023/02/10 13:15:52;;;;;;;33.88;12.30;;;;;;;5.82;100.00;103134.16;6226779;28;20062;-76
2023/02/10 13:19:00;;;;;;;45.60;14.80;;;;;;;5.72;100.00;103134.94;6226204;28;20507;-77
2023/02/10 13:22:06;;;;;;;49.85;15.93;;;;;;;5.76;100.00;103123.66;6226756;28;20057;-76
2023/02/10 13:25:12;;;;;;;35.45;13.63;;;;;;;5.84;100.00;103120.22;6221356;28;20058;-77
2023/02/10 13:28:21;;;;;;;39.05;13.60;;;;;;;5.97;100.00;103117.72;6224685;28;20061;-76
2023/02/10 13:31:40;;;;;;;43.47;15.15;;;;;;;5.91;100.00;103115.94;6226540;28;20054;-76
2023/02/10 13:34:45;;;;;;;36.05;13.85;;;;;;;6.07;100.00;103120.34;6212069;28;20046;-75
2023/02/10 13:37:50;;;;;;;37.75;13.18;;;;;;;6.19;100.00;103121.28;6226277;28;20053;-74
2023/02/10 13:41:40;;;;;;;34.67;11.68;;;;;;;6.12;100.00;103117.75;6225943;28;20045;-76
2023/02/10 13:44:25;;;;;;;38.15;11.85;;;;;;;6.12;100.00;103115.16;6220609;28;20471;-76
2023/02/10 13:47:31;;;;;;;37.13;11.55;;;;;;;6.15;100.00;103116.91;6225502;28;20057;-75
2023/02/10 13:50:43;;;;;;;25.98;10.43;;;;;;;6.23;100.00;103116.06;6225428;28;20042;-74
2023/02/10 13:53:45;;;;;;;33.03;10.20;;;;;;;6.29;100.00;103118.69;6224769;28;20076;-75
2023/02/10 13:56:53;;;;;;;34.20;11.77;;;;;;;6.28;100.00;103111.72;6225336;28;20104;-76
2023/02/10 14:00:12;;;;;;;34.95;11.05;;;;;;;6.40;100.00;103105.66;6226081;28;20056;-76